sensor_id;sensor_type;location;lat;lon;timestamp;pressure;altitude;pressure_sealevel;temperature;humidity
53715;BME280;39608;55.630;37.864;2023-05-21T00:02:43;100144.16;;;11.97;65.59
53715;BME280;39608;55.630;37.864;2023-05-21T00:07:47;100149.84;;;12.01;65.17
53715;BME280;39608;55.630;37.864;2023-05-21T00:12:48;100144.72;;;11.99;65.55
53715;BME280;39608;55.630;37.864;2023-05-21T00:17:50;100144.03;;;12.07;66.11
53715;BME280;39608;55.630;37.864;2023-05-21T00:22:54;100135.78;;;12.18;66.74
53715;BME280;39608;55.630;37.864;2023-05-21T00:27:56;100132.25;;;12.17;66.71
53715;BME280;39608;55.630;37.864;2023-05-21T00:32:58;100130.66;;;12.16;66.78
53715;BME280;39608;55.630;37.864;2023-05-21T00:38:03;100137.34;;;12.24;67.18
53715;BME280;39608;55.630;37.864;2023-05-21T00:43:06;100132.50;;;12.21;67.43
53715;BME280;39608;55.630;37.864;2023-05-21T00:48:10;100116.81;;;12.12;67.49
53715;BME280;39608;55.630;37.864;2023-05-21T00:53:13;100135.50;;;12.19;67.54
53715;BME280;39608;55.630;37.864;2023-05-21T00:58:18;100140.69;;;12.15;67.42
53715;BME280;39608;55.630;37.864;2023-05-21T01:03:21;100133.66;;;12.14;67.42
53715;BME280;39608;55.630;37.864;2023-05-21T01:08:25;100138.28;;;12.14;68.11
53715;BME280;39608;55.630;37.864;2023-05-21T01:13:28;100139.09;;;12.14;67.65
53715;BME280;39608;55.630;37.864;2023-05-21T01:18:31;100126.66;;;12.08;67.95
53715;BME280;39608;55.630;37.864;2023-05-21T01:23:36;100135.25;;;12.15;68.19
53715;BME280;39608;55.630;37.864;2023-05-21T01:28:38;100138.50;;;12.18;67.85
53715;BME280;39608;55.630;37.864;2023-05-21T01:33:44;100140.00;;;12.29;68.31
53715;BME280;39608;55.630;37.864;2023-05-21T01:38:56;100137.22;;;12.34;68.92
53715;BME280;39608;55.630;37.864;2023-05-21T01:44:01;100143.47;;;12.35;68.07
53715;BME280;39608;55.630;37.864;2023-05-21T01:49:04;100136.84;;;12.41;67.60
53715;BME280;39608;55.630;37.864;2023-05-21T01:54:09;100136.06;;;12.40;67.77
53715;BME280;39608;55.630;37.864;2023-05-21T01:59:11;100139.88;;;12.39;67.48
53715;BME280;39608;55.630;37.864;2023-05-21T02:04:13;100140.69;;;12.40;67.77
53715;BME280;39608;55.630;37.864;2023-05-21T02:09:17;100139.31;;;12.42;68.03
53715;BME280;39608;55.630;37.864;2023-05-21T02:14:18;100141.44;;;12.45;67.85
53715;BME280;39608;55.630;37.864;2023-05-21T02:19:21;100149.59;;;12.45;68.12
53715;BME280;39608;55.630;37.864;2023-05-21T02:24:24;100136.00;;;12.45;67.88
53715;BME280;39608;55.630;37.864;2023-05-21T02:29:26;100135.56;;;12.38;67.98
53715;BME280;39608;55.630;37.864;2023-05-21T02:34:28;100138.03;;;12.35;67.97
53715;BME280;39608;55.630;37.864;2023-05-21T02:39:34;100141.03;;;12.33;68.22
53715;BME280;39608;55.630;37.864;2023-05-21T02:44:36;100143.75;;;12.33;68.15
53715;BME280;39608;55.630;37.864;2023-05-21T02:49:38;100150.84;;;12.34;68.32
53715;BME280;39608;55.630;37.864;2023-05-21T02:54:42;100145.59;;;12.38;68.46
53715;BME280;39608;55.630;37.864;2023-05-21T02:59:44;100143.72;;;12.38;68.04
53715;BME280;39608;55.630;37.864;2023-05-21T03:04:46;100139.31;;;12.42;67.61
53715;BME280;39608;55.630;37.864;2023-05-21T03:09:51;100136.78;;;12.46;68.03
53715;BME280;39608;55.630;37.864;2023-05-21T03:14:53;100143.03;;;12.46;67.79
53715;BME280;39608;55.630;37.864;2023-05-21T03:19:55;100139.31;;;12.42;67.72
53715;BME280;39608;55.630;37.864;2023-05-21T03:24:59;100151.44;;;12.50;67.77
53715;BME280;39608;55.630;37.864;2023-05-21T03:30:02;100146.88;;;12.45;67.64
53715;BME280;39608;55.630;37.864;2023-05-21T03:35:06;100148.78;;;12.45;67.83
53715;BME280;39608;55.630;37.864;2023-05-21T03:40:11;100147.47;;;12.42;68.09
53715;BME280;39608;55.630;37.864;2023-05-21T03:45:13;100152.03;;;12.47;67.88
53715;BME280;39608;55.630;37.864;2023-05-21T03:50:15;100156.63;;;12.46;67.89
53715;BME280;39608;55.630;37.864;2023-05-21T03:55:19;100160.69;;;12.49;67.95
53715;BME280;39608;55.630;37.864;2023-05-21T04:00:21;100156.28;;;12.53;67.77
53715;BME280;39608;55.630;37.864;2023-05-21T04:05:23;100159.31;;;12.52;67.42
53715;BME280;39608;55.630;37.864;2023-05-21T04:10:26;100155.53;;;12.47;67.36
53715;BME280;39608;55.630;37.864;2023-05-21T04:15:28;100167.06;;;12.39;67.56
53715;BME280;39608;55.630;37.864;2023-05-21T04:20:30;100154.22;;;12.45;67.85
53715;BME280;39608;55.630;37.864;2023-05-21T04:25:34;100148.41;;;12.52;67.56
53715;BME280;39608;55.630;37.864;2023-05-21T04:30:36;100148.38;;;12.57;67.43
53715;BME280;39608;55.630;37.864;2023-05-21T04:35:38;100137.59;;;12.46;67.44
53715;BME280;39608;55.630;37.864;2023-05-21T04:40:45;100146.75;;;12.56;67.97
53715;BME280;39608;55.630;37.864;2023-05-21T04:45:48;100148.88;;;12.59;67.97
53715;BME280;39608;55.630;37.864;2023-05-21T04:50:50;100153.97;;;12.65;67.79
53715;BME280;39608;55.630;37.864;2023-05-21T04:55:54;100146.16;;;12.78;67.84
53715;BME280;39608;55.630;37.864;2023-05-21T05:00:58;100144.91;;;12.89;67.50
53715;BME280;39608;55.630;37.864;2023-05-21T05:06:03;100163.81;;;13.18;67.44
53715;BME280;39608;55.630;37.864;2023-05-21T05:11:06;100166.06;;;13.49;67.66
53715;BME280;39608;55.630;37.864;2023-05-21T05:16:09;100156.56;;;13.80;66.54
53715;BME280;39608;55.630;37.864;2023-05-21T05:21:12;100168.50;;;13.84;66.04
53715;BME280;39608;55.630;37.864;2023-05-21T05:26:15;100168.97;;;13.86;66.03
53715;BME280;39608;55.630;37.864;2023-05-21T05:31:17;100162.00;;;13.80;66.42
53715;BME280;39608;55.630;37.864;2023-05-21T05:36:20;100146.47;;;13.80;65.90
53715;BME280;39608;55.630;37.864;2023-05-21T05:41:23;100174.53;;;13.95;65.83
53715;BME280;39608;55.630;37.864;2023-05-21T05:46:27;100162.00;;;13.80;65.50
53715;BME280;39608;55.630;37.864;2023-05-21T05:51:29;100171.59;;;13.77;65.45
53715;BME280;39608;55.630;37.864;2023-05-21T05:56:33;100173.81;;;13.75;65.63
53715;BME280;39608;55.630;37.864;2023-05-21T06:01:35;100167.34;;;13.71;65.01
53715;BME280;39608;55.630;37.864;2023-05-21T06:06:37;100178.41;;;13.94;65.43
53715;BME280;39608;55.630;37.864;2023-05-21T06:11:40;100181.03;;;14.27;64.94
53715;BME280;39608;55.630;37.864;2023-05-21T06:16:42;100179.31;;;14.45;65.00
53715;BME280;39608;55.630;37.864;2023-05-21T06:21:44;100182.97;;;14.68;64.47
53715;BME280;39608;55.630;37.864;2023-05-21T06:26:48;100184.50;;;14.97;63.41
53715;BME280;39608;55.630;37.864;2023-05-21T06:31:50;100181.38;;;15.03;63.28
53715;BME280;39608;55.630;37.864;2023-05-21T06:36:52;100191.31;;;15.22;63.15
53715;BME280;39608;55.630;37.864;2023-05-21T06:41:58;100167.97;;;15.38;61.40
53715;BME280;39608;55.630;37.864;2023-05-21T06:47:00;100177.28;;;15.37;61.55
53715;BME280;39608;55.630;37.864;2023-05-21T06:52:02;100174.66;;;15.78;61.01
53715;BME280;39608;55.630;37.864;2023-05-21T06:57:05;100175.94;;;16.03;59.38
53715;BME280;39608;55.630;37.864;2023-05-21T07:02:07;100176.78;;;16.12;59.07
53715;BME280;39608;55.630;37.864;2023-05-21T07:07:09;100179.34;;;16.08;58.37
53715;BME280;39608;55.630;37.864;2023-05-21T07:12:13;100186.25;;;16.55;57.40
53715;BME280;39608;55.630;37.864;2023-05-21T07:17:15;100178.75;;;16.20;57.54
53715;BME280;39608;55.630;37.864;2023-05-21T07:22:18;100186.09;;;16.51;57.03
53715;BME280;39608;55.630;37.864;2023-05-21T07:27:21;100185.31;;;16.77;55.14
53715;BME280;39608;55.630;37.864;2023-05-21T07:32:23;100175.34;;;16.72;54.16
53715;BME280;39608;55.630;37.864;2023-05-21T07:37:28;100187.75;;;16.70;54.69
53715;BME280;39608;55.630;37.864;2023-05-21T07:42:31;100154.41;;;17.29;53.28
53715;BME280;39608;55.630;37.864;2023-05-21T07:47:34;100180.66;;;18.21;50.25
53715;BME280;39608;55.630;37.864;2023-05-21T07:52:36;100169.28;;;18.02;50.04
53715;BME280;39608;55.630;37.864;2023-05-21T07:57:39;100187.38;;;18.41;49.14
53715;BME280;39608;55.630;37.864;2023-05-21T08:02:41;100159.50;;;17.74;49.15
53715;BME280;39608;55.630;37.864;2023-05-21T08:07:43;100183.66;;;17.99;50.50
53715;BME280;39608;55.630;37.864;2023-05-21T08:12:47;100182.06;;;17.89;49.63
53715;BME280;39608;55.630;37.864;2023-05-21T08:17:49;100196.34;;;17.47;49.82
53715;BME280;39608;55.630;37.864;2023-05-21T08:22:51;100173.44;;;17.52;48.65
53715;BME280;39608;55.630;37.864;2023-05-21T08:27:55;100187.31;;;19.43;46.65
53715;BME280;39608;55.630;37.864;2023-05-21T08:32:58;100180.25;;;20.13;43.78
53715;BME280;39608;55.630;37.864;2023-05-21T08:38:00;100185.91;;;20.41;44.60
53715;BME280;39608;55.630;37.864;2023-05-21T08:43:04;100181.63;;;20.07;43.04
53715;BME280;39608;55.630;37.864;2023-05-21T08:48:08;100188.06;;;20.85;43.12
53715;BME280;39608;55.630;37.864;2023-05-21T08:53:11;100188.66;;;21.92;39.55
53715;BME280;39608;55.630;37.864;2023-05-21T08:58:15;100184.94;;;22.48;38.52
53715;BME280;39608;55.630;37.864;2023-05-21T09:03:17;100173.00;;;22.28;37.48
53715;BME280;39608;55.630;37.864;2023-05-21T09:08:28;100177.91;;;22.02;38.33
53715;BME280;39608;55.630;37.864;2023-05-21T09:13:32;100174.44;;;22.37;38.59
53715;BME280;39608;55.630;37.864;2023-05-21T09:18:35;100161.88;;;22.76;35.61
53715;BME280;39608;55.630;37.864;2023-05-21T09:23:37;100156.06;;;23.00;34.73
53715;BME280;39608;55.630;37.864;2023-05-21T09:28:40;100174.63;;;23.00;36.03
53715;BME280;39608;55.630;37.864;2023-05-21T09:33:45;100178.41;;;23.11;35.57
53715;BME280;39608;55.630;37.864;2023-05-21T09:38:48;100176.59;;;23.58;32.20
53715;BME280;39608;55.630;37.864;2023-05-21T09:43:57;100173.38;;;22.78;33.65
53715;BME280;39608;55.630;37.864;2023-05-21T09:49:00;100184.66;;;23.24;33.27
53715;BME280;39608;55.630;37.864;2023-05-21T09:54:02;100180.53;;;23.37;32.80
53715;BME280;39608;55.630;37.864;2023-05-21T09:59:06;100167.41;;;22.40;34.05
53715;BME280;39608;55.630;37.864;2023-05-21T10:04:08;100195.53;;;21.82;34.70
53715;BME280;39608;55.630;37.864;2023-05-21T10:09:13;100185.69;;;21.12;36.01
53715;BME280;39608;55.630;37.864;2023-05-21T10:14:19;100181.75;;;20.35;36.94
53715;BME280;39608;55.630;37.864;2023-05-21T10:19:23;100179.84;;;19.77;37.88
53715;BME280;39608;55.630;37.864;2023-05-21T10:24:25;100191.16;;;19.63;38.46
53715;BME280;39608;55.630;37.864;2023-05-21T10:29:30;100190.31;;;19.84;38.57
53715;BME280;39608;55.630;37.864;2023-05-21T10:34:33;100185.09;;;20.04;38.19
53715;BME280;39608;55.630;37.864;2023-05-21T10:39:38;100191.97;;;20.10;38.59
53715;BME280;39608;55.630;37.864;2023-05-21T10:44:53;100190.13;;;20.02;38.67
53715;BME280;39608;55.630;37.864;2023-05-21T10:55:35;100193.59;;;19.77;39.21
53715;BME280;39608;55.630;37.864;2023-05-21T11:00:41;100196.19;;;19.82;38.82
53715;BME280;39608;55.630;37.864;2023-05-21T11:05:50;100189.19;;;20.59;38.19
53715;BME280;39608;55.630;37.864;2023-05-21T11:10:53;100189.25;;;21.12;37.64
53715;BME280;39608;55.630;37.864;2023-05-21T11:16:06;100192.44;;;21.55;37.01
53715;BME280;39608;55.630;37.864;2023-05-21T11:21:09;100191.06;;;21.49;36.45
53715;BME280;39608;55.630;37.864;2023-05-21T11:26:14;100194.78;;;21.41;36.18
53715;BME280;39608;55.630;37.864;2023-05-21T11:31:24;100199.47;;;21.12;36.37
53715;BME280;39608;55.630;37.864;2023-05-21T11:36:26;100185.31;;;20.60;36.72
53715;BME280;39608;55.630;37.864;2023-05-21T11:41:28;100191.19;;;20.22;37.90
53715;BME280;39608;55.630;37.864;2023-05-21T11:46:33;100188.75;;;20.08;38.50
53715;BME280;39608;55.630;37.864;2023-05-21T11:51:35;100195.72;;;19.93;38.71
53715;BME280;39608;55.630;37.864;2023-05-21T11:56:39;100192.63;;;19.61;38.79
53715;BME280;39608;55.630;37.864;2023-05-21T12:01:44;100196.66;;;19.30;39.13
53715;BME280;39608;55.630;37.864;2023-05-21T12:06:46;100188.81;;;19.20;39.76
53715;BME280;39608;55.630;37.864;2023-05-21T12:11:50;100186.75;;;19.50;39.57
53715;BME280;39608;55.630;37.864;2023-05-21T12:16:53;100194.34;;;19.87;38.62
53715;BME280;39608;55.630;37.864;2023-05-21T12:21:55;100197.38;;;20.31;37.87
53715;BME280;39608;55.630;37.864;2023-05-21T12:26:58;100197.97;;;21.55;36.88
53715;BME280;39608;55.630;37.864;2023-05-21T12:32:03;100197.09;;;21.67;36.00
53715;BME280;39608;55.630;37.864;2023-05-21T12:37:06;100191.78;;;21.90;36.29
53715;BME280;39608;55.630;37.864;2023-05-21T12:42:09;100191.13;;;22.77;33.78
53715;BME280;39608;55.630;37.864;2023-05-21T12:47:12;100196.97;;;22.39;34.65
53715;BME280;39608;55.630;37.864;2023-05-21T12:52:18;100193.59;;;21.54;36.15
53715;BME280;39608;55.630;37.864;2023-05-21T12:57:21;100195.41;;;20.93;36.42
53715;BME280;39608;55.630;37.864;2023-05-21T13:02:26;100191.66;;;20.48;37.17
53715;BME280;39608;55.630;37.864;2023-05-21T13:07:30;100196.69;;;20.34;37.28
53715;BME280;39608;55.630;37.864;2023-05-21T13:12:33;100197.16;;;20.48;37.43
53715;BME280;39608;55.630;37.864;2023-05-21T13:17:37;100201.59;;;20.16;38.12
53715;BME280;39608;55.630;37.864;2023-05-21T13:22:41;100200.34;;;20.01;38.08
53715;BME280;39608;55.630;37.864;2023-05-21T13:27:46;100197.19;;;19.57;39.19
53715;BME280;39608;55.630;37.864;2023-05-21T13:32:50;100202.09;;;19.18;39.80
53715;BME280;39608;55.630;37.864;2023-05-21T13:37:53;100202.75;;;18.93;40.52
53715;BME280;39608;55.630;37.864;2023-05-21T13:42:55;100201.47;;;19.12;40.68
53715;BME280;39608;55.630;37.864;2023-05-21T13:47:58;100197.97;;;19.78;39.81
53715;BME280;39608;55.630;37.864;2023-05-21T13:53:01;100202.38;;;19.58;40.16
53715;BME280;39608;55.630;37.864;2023-05-21T13:58:04;100195.72;;;19.26;40.57
53715;BME280;39608;55.630;37.864;2023-05-21T14:03:07;100194.84;;;19.13;41.24
53715;BME280;39608;55.630;37.864;2023-05-21T14:08:10;100184.47;;;18.97;41.46
53715;BME280;39608;55.630;37.864;2023-05-21T14:13:12;100191.34;;;19.04;41.43
53715;BME280;39608;55.630;37.864;2023-05-21T14:18:15;100188.53;;;19.12;41.05
53715;BME280;39608;55.630;37.864;2023-05-21T14:23:17;100190.41;;;19.00;41.16
53715;BME280;39608;55.630;37.864;2023-05-21T14:28:19;100184.31;;;18.94;42.09
53715;BME280;39608;55.630;37.864;2023-05-21T14:33:23;100179.16;;;18.92;42.17
53715;BME280;39608;55.630;37.864;2023-05-21T14:38:25;100185.41;;;18.72;42.53
53715;BME280;39608;55.630;37.864;2023-05-21T14:43:27;100194.56;;;18.55;42.84
53715;BME280;39608;55.630;37.864;2023-05-21T14:48:30;100190.06;;;18.50;43.10
53715;BME280;39608;55.630;37.864;2023-05-21T14:53:32;100179.47;;;18.40;43.42
53715;BME280;39608;55.630;37.864;2023-05-21T14:58:34;100182.66;;;18.42;43.21
53715;BME280;39608;55.630;37.864;2023-05-21T15:03:38;100181.50;;;18.13;43.91
53715;BME280;39608;55.630;37.864;2023-05-21T15:08:42;100183.91;;;18.23;43.87
53715;BME280;39608;55.630;37.864;2023-05-21T15:13:44;100181.34;;;18.18;43.93
53715;BME280;39608;55.630;37.864;2023-05-21T15:18:48;100179.16;;;18.33;43.95
53715;BME280;39608;55.630;37.864;2023-05-21T15:23:50;100175.28;;;18.34;44.24
53715;BME280;39608;55.630;37.864;2023-05-21T15:28:52;100171.84;;;18.45;43.99
53715;BME280;39608;55.630;37.864;2023-05-21T15:33:55;100178.66;;;18.39;44.12
53715;BME280;39608;55.630;37.864;2023-05-21T15:38:58;100170.28;;;18.36;44.75
53715;BME280;39608;55.630;37.864;2023-05-21T15:44:03;100185.75;;;18.40;44.32
53715;BME280;39608;55.630;37.864;2023-05-21T15:49:07;100188.28;;;18.16;44.60
53715;BME280;39608;55.630;37.864;2023-05-21T15:54:09;100174.44;;;18.12;44.73
53715;BME280;39608;55.630;37.864;2023-05-21T15:59:11;100173.50;;;17.90;44.92
53715;BME280;39608;55.630;37.864;2023-05-21T16:04:15;100176.38;;;18.03;44.71
53715;BME280;39608;55.630;37.864;2023-05-21T16:09:19;100193.19;;;18.01;44.92
53715;BME280;39608;55.630;37.864;2023-05-21T16:14:21;100187.16;;;18.17;44.73
53715;BME280;39608;55.630;37.864;2023-05-21T16:19:25;100194.09;;;18.14;45.16
53715;BME280;39608;55.630;37.864;2023-05-21T16:24:27;100199.47;;;18.10;45.56
53715;BME280;39608;55.630;37.864;2023-05-21T16:29:29;100191.53;;;18.09;45.68
53715;BME280;39608;55.630;37.864;2023-05-21T16:34:33;100198.34;;;18.03;45.45
53715;BME280;39608;55.630;37.864;2023-05-21T16:39:36;100198.50;;;17.98;46.03
53715;BME280;39608;55.630;37.864;2023-05-21T16:44:37;100194.47;;;17.86;46.21
53715;BME280;39608;55.630;37.864;2023-05-21T16:49:41;100190.78;;;18.00;46.09
53715;BME280;39608;55.630;37.864;2023-05-21T16:54:43;100191.09;;;17.98;46.20
53715;BME280;39608;55.630;37.864;2023-05-21T16:59:48;100199.00;;;18.00;46.03
53715;BME280;39608;55.630;37.864;2023-05-21T17:04:51;100186.91;;;18.01;46.28
53715;BME280;39608;55.630;37.864;2023-05-21T17:09:53;100187.75;;;17.92;46.76
53715;BME280;39608;55.630;37.864;2023-05-21T17:14:55;100184.00;;;17.97;47.09
53715;BME280;39608;55.630;37.864;2023-05-21T17:19:59;100201.47;;;17.92;46.52
53715;BME280;39608;55.630;37.864;2023-05-21T17:25:01;100198.25;;;17.73;47.74
53715;BME280;39608;55.630;37.864;2023-05-21T17:30:06;100202.59;;;17.74;47.40
53715;BME280;39608;55.630;37.864;2023-05-21T17:35:10;100208.91;;;17.66;47.67
53715;BME280;39608;55.630;37.864;2023-05-21T17:40:13;100195.50;;;17.64;47.99
53715;BME280;39608;55.630;37.864;2023-05-21T17:45:20;100205.50;;;17.77;47.69
53715;BME280;39608;55.630;37.864;2023-05-21T17:50:24;100209.06;;;17.69;48.48
53715;BME280;39608;55.630;37.864;2023-05-21T17:55:26;100206.66;;;17.59;47.95
53715;BME280;39608;55.630;37.864;2023-05-21T18:00:28;100209.09;;;17.52;48.53
53715;BME280;39608;55.630;37.864;2023-05-21T18:05:33;100208.75;;;17.62;48.03
53715;BME280;39608;55.630;37.864;2023-05-21T18:10:35;100212.78;;;17.47;49.32
53715;BME280;39608;55.630;37.864;2023-05-21T18:15:37;100215.88;;;17.28;50.11
53715;BME280;39608;55.630;37.864;2023-05-21T18:20:40;100214.41;;;17.22;50.18
53715;BME280;39608;55.630;37.864;2023-05-21T18:25:42;100211.53;;;17.18;50.57
53715;BME280;39608;55.630;37.864;2023-05-21T18:30:44;100211.34;;;17.15;50.69
53715;BME280;39608;55.630;37.864;2023-05-21T18:35:48;100218.31;;;17.21;50.27
53715;BME280;39608;55.630;37.864;2023-05-21T18:40:50;100216.34;;;17.21;50.70
53715;BME280;39608;55.630;37.864;2023-05-21T18:45:52;100212.78;;;17.03;50.83
53715;BME280;39608;55.630;37.864;2023-05-21T18:50:55;100216.84;;;17.06;50.83
53715;BME280;39608;55.630;37.864;2023-05-21T18:55:57;100217.47;;;17.03;50.71
53715;BME280;39608;55.630;37.864;2023-05-21T19:00:59;100205.94;;;16.74;51.12
53715;BME280;39608;55.630;37.864;2023-05-21T19:06:03;100219.09;;;16.55;51.77
53715;BME280;39608;55.630;37.864;2023-05-21T19:11:05;100215.66;;;16.32;52.48
53715;BME280;39608;55.630;37.864;2023-05-21T19:16:09;100222.03;;;16.18;52.87
53715;BME280;39608;55.630;37.864;2023-05-21T19:21:12;100214.59;;;16.10;53.36
53715;BME280;39608;55.630;37.864;2023-05-21T19:26:15;100215.19;;;15.98;53.63
53715;BME280;39608;55.630;37.864;2023-05-21T19:31:17;100210.78;;;15.88;53.86
53715;BME280;39608;55.630;37.864;2023-05-21T19:36:20;100217.53;;;15.82;54.03
53715;BME280;39608;55.630;37.864;2023-05-21T19:41:23;100216.63;;;15.73;53.93
53715;BME280;39608;55.630;37.864;2023-05-21T19:46:25;100219.66;;;15.71;53.69
53715;BME280;39608;55.630;37.864;2023-05-21T19:51:29;100221.22;;;15.64;53.79
53715;BME280;39608;55.630;37.864;2023-05-21T19:56:31;100214.25;;;15.57;53.94
53715;BME280;39608;55.630;37.864;2023-05-21T20:01:33;100204.00;;;15.63;54.05
53715;BME280;39608;55.630;37.864;2023-05-21T20:06:40;100215.09;;;15.67;54.62
53715;BME280;39608;55.630;37.864;2023-05-21T20:11:42;100212.22;;;15.63;54.91
53715;BME280;39608;55.630;37.864;2023-05-21T20:16:44;100220.72;;;15.62;54.86
53715;BME280;39608;55.630;37.864;2023-05-21T20:21:48;100213.31;;;15.62;54.93
53715;BME280;39608;55.630;37.864;2023-05-21T20:26:50;100207.16;;;15.56;54.67
53715;BME280;39608;55.630;37.864;2023-05-21T20:31:52;100212.75;;;15.51;54.93
53715;BME280;39608;55.630;37.864;2023-05-21T20:36:55;100222.22;;;15.45;55.05
53715;BME280;39608;55.630;37.864;2023-05-21T20:41:58;100227.47;;;15.42;54.71
53715;BME280;39608;55.630;37.864;2023-05-21T20:47:00;100229.16;;;15.29;55.31
53715;BME280;39608;55.630;37.864;2023-05-21T20:52:05;100229.97;;;15.29;55.71
53715;BME280;39608;55.630;37.864;2023-05-21T20:57:08;100231.19;;;15.23;55.29
53715;BME280;39608;55.630;37.864;2023-05-21T21:02:10;100236.97;;;15.21;54.52
53715;BME280;39608;55.630;37.864;2023-05-21T21:07:17;100237.84;;;15.31;54.20
53715;BME280;39608;55.630;37.864;2023-05-21T21:12:20;100241.69;;;15.30;53.95
53715;BME280;39608;55.630;37.864;2023-05-21T21:17:22;100223.69;;;15.29;53.87
53715;BME280;39608;55.630;37.864;2023-05-21T21:22:27;100230.84;;;15.38;53.03
53715;BME280;39608;55.630;37.864;2023-05-21T21:27:29;100220.53;;;15.35;53.72
53715;BME280;39608;55.630;37.864;2023-05-21T21:32:31;100211.69;;;15.38;53.36
53715;BME280;39608;55.630;37.864;2023-05-21T21:37:34;100220.59;;;15.44;52.92
53715;BME280;39608;55.630;37.864;2023-05-21T21:42:36;100220.41;;;15.40;52.52
53715;BME280;39608;55.630;37.864;2023-05-21T21:47:38;100216.38;;;15.38;52.92
53715;BME280;39608;55.630;37.864;2023-05-21T21:52:42;100215.38;;;15.34;53.16
53715;BME280;39608;55.630;37.864;2023-05-21T21:57:44;100211.94;;;15.28;53.41
53715;BME280;39608;55.630;37.864;2023-05-21T22:02:46;100213.06;;;15.27;53.44
53715;BME280;39608;55.630;37.864;2023-05-21T22:07:50;100206.44;;;15.19;53.94
53715;BME280;39608;55.630;37.864;2023-05-21T22:12:52;100206.03;;;15.12;53.97
53715;BME280;39608;55.630;37.864;2023-05-21T22:17:54;100202.09;;;15.04;54.21
53715;BME280;39608;55.630;37.864;2023-05-21T22:22:58;100200.78;;;15.02;54.57
53715;BME280;39608;55.630;37.864;2023-05-21T22:28:00;100196.88;;;14.94;54.67
53715;BME280;39608;55.630;37.864;2023-05-21T22:33:02;100180.91;;;14.87;54.95
53715;BME280;39608;55.630;37.864;2023-05-21T22:38:06;100188.41;;;14.82;55.64
53715;BME280;39608;55.630;37.864;2023-05-21T22:43:08;100182.97;;;14.68;56.08
53715;BME280;39608;55.630;37.864;2023-05-21T22:48:10;100185.00;;;14.62;56.77
53715;BME280;39608;55.630;37.864;2023-05-21T22:53:15;100192.06;;;14.63;57.35
53715;BME280;39608;55.630;37.864;2023-05-21T22:58:17;100180.41;;;14.58;57.50
53715;BME280;39608;55.630;37.864;2023-05-21T23:03:19;100184.59;;;14.55;58.04
53715;BME280;39608;55.630;37.864;2023-05-21T23:08:23;100184.06;;;14.53;57.95
53715;BME280;39608;55.630;37.864;2023-05-21T23:13:25;100189.94;;;14.46;57.96
53715;BME280;39608;55.630;37.864;2023-05-21T23:18:27;100179.13;;;14.41;57.35
53715;BME280;39608;55.630;37.864;2023-05-21T23:23:30;100188.72;;;14.38;58.21
53715;BME280;39608;55.630;37.864;2023-05-21T23:28:32;100184.78;;;14.31;58.14
53715;BME280;39608;55.630;37.864;2023-05-21T23:33:36;100184.28;;;14.29;58.39
53715;BME280;39608;55.630;37.864;2023-05-21T23:38:39;100195.28;;;14.24;58.07
53715;BME280;39608;55.630;37.864;2023-05-21T23:43:41;100200.84;;;14.18;56.90
53715;BME280;39608;55.630;37.864;2023-05-21T23:48:43;100190.44;;;14.20;56.31
53715;BME280;39608;55.630;37.864;2023-05-21T23:53:47;100193.78;;;14.31;56.43
53715;BME280;39608;55.630;37.864;2023-05-21T23:58:49;100182.66;;;14.28;56.46
